Welkom op de weersite van Veghel e.o.

NIEUW !!!->-> WEBCAM STEENUIL <-<- NIEUW !!!->-> WEBCAM STEENUIL <-<- NIEUW !!!->-> WEBCAM STEENUIL <-<- NIEUW !!!

Als plaatje niet actueel is cache legen;
Ctrl + Shift + R

Mijn ervaring is dat dit het best werk met Microsoft Edge en Firefox.


Webcam Veghel  Webcam Veghel


Steenuil Veghel  Steenuil Veghel


Onweer radar Meer informatie blitzortung!


Regen radar Meer informatie rain snow radar


U vindt ons ook hier:

Het Weer Aktueel

European Weather Network

Weather Underground

Benelux Weer Netwerk

AWEKAS


Het weer levert geen direct gevaar op.    Er zijn geen waarschuwingen afgegeven.

METAR rapporten vliegvelden

   
EHAM - Amsterdam
Gewijzigd: 20-06-2021 11:55
Grotendeels bewolkt  
Grotendeels bewolkt  
   Wind: WZW 16.7 km/h
Wind: WZW 16.7 km/h
Temperatuur: 20°C
Dauwpunt: 15°C
Vochtigheid: 73%
Barometer: 1008 hPa
Bewolking: Mostly Cloudy
Zicht: meer dan 10 km
Bewolking: Licht bewolkt 1100 ft,
Grotendeels bewolkt 2100 ft
EHAM 200955Z 25009KT 210V290 9999 FEW011 BKN021 20/15 Q1008 NOSIG
EHEH - Eindhoven
Gewijzigd: 20-06-2021 11:55
Grotendeels bewolkt  
Grotendeels bewolkt  
   Wind: ZZW 24.1 km/h
Wind: ZZW 24.1 km/h
Temperatuur: 22°C
Dauwpunt: 15°C
Vochtigheid: 65%
Barometer: 1009 hPa
Bewolking: Mostly Cloudy
Zicht: meer dan 10 km
Bewolking: Gedeeltelijk bewolkt 2800 ft,
Gedeeltelijk bewolkt 3400 ft,
Grotendeels bewolkt 21000 ft
EHEH 200955Z AUTO 21013KT 160V270 9999 SCT028 SCT034 BKN210 22/15 Q1009 BLU NOSIG
EHGR - Gilze/Rijen
Gewijzigd: 20-06-2021 11:56
Bewolking  
Bewolking  
   Wind: varieert 11.1 km/h
Wind: varieert 11.1 km/h
Temperatuur: 22°C
Dauwpunt: 16°C
Vochtigheid: 69%
Barometer: 1008 hPa
Bewolking: Overcast
Zicht: meer dan 10 km
Bewolking: Gedeeltelijk bewolkt 2400 ft,
Bewolking 2700 ft
EHGR 200956Z AUTO VRB06KT 9999 SCT024 OVC027 22/16 Q1008 WHT
EHBK - Maastricht
Gewijzigd: 20-06-2021 11:55
Bewolking  
Bewolking  
   Wind: ZW 20.4 km/h
Wind: ZW 20.4 km/h
Temperatuur: 22°C
Dauwpunt: 14°C
Vochtigheid: 61%
Barometer: 1010 hPa
Bewolking: Overcast
Zicht: meer dan 10 km
Bewolking: Gedeeltelijk bewolkt 3200 ft,
Grotendeels bewolkt 3700 ft,
Bewolking 4300 ft
EHBK 200955Z AUTO 23011KT 190V280 9999 SCT032 BKN037 OVC043 22/14 Q1010 BECMG 24011KT
EHVK - Volkel
Gewijzigd: 20-06-2021 11:55
Bewolking  
Bewolking  
   Wind: ZW 22.2 km/h<br />Gust to 22.2 km/h
Wind: ZW 22.2 km/h
Gust to 22.2 km/h
Temperatuur: 22°C
Dauwpunt: 15°C
Vochtigheid: 65%
Barometer: 1009 hPa
Bewolking: Overcast
Zicht: meer dan 10 km
Bewolking: Grotendeels bewolkt 2500 ft,
Grotendeels bewolkt 3400 ft,
Bewolking 4000 ft
EHVK 200955Z AUTO 23012G22KT 190V260 9999 BKN025 BKN034 OVC040 22/15 Q1009 BLU
EHFS - Vlissingen
Gewijzigd: 20-06-2021 11:55
Grotendeels bewolkt  
Grotendeels bewolkt  
   Wind: WZW 20.4 km/h
Wind: WZW 20.4 km/h
Temperatuur: 19°C
Dauwpunt: 16°C
Vochtigheid: 83%
Barometer: 1008 hPa
Bewolking: Mostly Cloudy
Zicht: meer dan 10 km
Bewolking: Gedeeltelijk bewolkt 2100 ft,
Grotendeels bewolkt 2500 ft,
Grotendeels bewolkt 2800 ft
EHFS 200955Z AUTO 24011KT 9999 SCT021/// BKN025/// BKN028/// 19/16 Q1008

Script ontwikkeld door  Saratoga-weather.org Aangepast voor de template door  Weerstation Leuven

Apparatuur in gebruik:

Weerstation
Davis VP2

Weerprogramma
WeatherLink

Weercomputer
Sponsor

Webleverancier
My provider

Davis VP2

WeatherLink

Sponsor

My provider